KLJF

Details ICAO KLJF
Name LITCHFIELD MUNI
Region United States
Timezone America/Chicago (UTC-6.0)
Plans Departing 0
Arriving 0
Stats Elevation 1,140 ft / 347 m (AMSL)
Location 45.097130° -94.507256°
Runways 1
Magnetic Variation 1.214° E
Sunrise 2017-12-10 13:47:21 UTC / 2017-12-10 07:47:21 Local
Sunset 2017-12-10 22:37:28 UTC / 2017-12-10 16:37:28 Local
Advertisement - Login to hide

Runways

ID Width Length Bearing (true) Bearing (mag) Surface Threshold Offset Overrun Length
13 100 ft / 30 m 4,000 ft / 1,219 m 138.56° 137.35° Asphalt 0 ft / 0 m 0 ft / 0 m
31 100 ft / 30 m 4,000 ft / 1,219 m 318.57° 317.36° Asphalt 0 ft / 0 m 0 ft / 0 m

Map

Weather


0- 5 10 15 20 25 30 35+ Temperature / ° C

Clouds and Precipitation
Forecast for 2017-12-11 06:00 UTC. Updated an hour ago

Ground ~20,000 ft ~40,000 ft Winds

METAR

KLJF 110355Z AUTO 00000KT 10SM BKN060 OVC070 M02/M03 A2997 RMK AO2

TAF

Not found

Frequencies

Unicom 122.90 MHz CTAF
Warning: Do not use this data for real-world aviation or navigation. No guarantee of current accuracy is given.